createdAt,value
2023-03-24T00:02:17.239Z,5.97
2023-03-24T00:04:48.544Z,5.35
2023-03-24T00:07:17.977Z,4.90
2023-03-24T00:09:48.412Z,5.93
2023-03-24T00:12:19.437Z,3.42
2023-03-24T00:14:48.560Z,5.60
2023-03-24T00:17:20.987Z,7.10
2023-03-24T00:19:51.029Z,6.60
2023-03-24T00:22:22.066Z,8.55
2023-03-24T00:24:51.087Z,5.57
2023-03-24T00:27:22.050Z,4.78
2023-03-24T00:29:51.101Z,4.55
2023-03-24T00:32:20.160Z,5.78
2023-03-24T00:34:50.262Z,4.68
2023-03-24T00:37:19.488Z,6.78
2023-03-24T00:39:48.520Z,5.22
2023-03-24T00:42:18.509Z,4.50
2023-03-24T00:44:49.185Z,7.15
2023-03-24T00:47:18.788Z,6.13
2023-03-24T00:49:48.713Z,6.68
2023-03-24T00:52:21.350Z,5.15
2023-03-24T00:54:51.628Z,4.70
2023-03-24T00:57:23.769Z,5.45
2023-03-24T00:59:55.468Z,7.65
2023-03-24T01:02:26.127Z,4.97
2023-03-24T01:04:55.875Z,5.90
2023-03-24T01:07:25.903Z,5.93
2023-03-24T01:10:01.200Z,5.38
2023-03-24T01:12:36.140Z,5.93
2023-03-24T01:15:09.569Z,4.65
2023-03-24T01:17:38.720Z,6.90
2023-03-24T01:20:11.637Z,7.65
2023-03-24T01:22:41.998Z,5.28
2023-03-24T01:25:15.010Z,5.88
2023-03-24T01:27:44.323Z,5.78
2023-03-24T01:30:16.112Z,5.53
2023-03-24T01:32:45.217Z,4.28
2023-03-24T01:35:14.255Z,6.03
2023-03-24T01:37:43.491Z,5.82
2023-03-24T01:40:17.904Z,11.55
2023-03-24T01:42:46.994Z,5.22
2023-03-24T01:45:55.701Z,6.40
2023-03-24T01:48:28.202Z,4.53
2023-03-24T01:50:59.826Z,4.80
2023-03-24T01:53:29.822Z,3.65
2023-03-24T01:55:59.259Z,5.13
2023-03-24T01:58:31.930Z,4.15
2023-03-24T02:01:03.385Z,4.85
2023-03-24T02:03:35.641Z,6.38
2023-03-24T02:06:04.798Z,3.58
2023-03-24T02:08:39.421Z,6.20
2023-03-24T02:11:09.496Z,6.28
2023-03-24T02:13:38.609Z,6.80
2023-03-24T02:16:22.526Z,5.07
2023-03-24T02:19:01.338Z,5.90
2023-03-24T02:22:11.199Z,4.57
2023-03-24T02:25:30.191Z,6.68
2023-03-24T02:28:14.706Z,7.57
2023-03-24T02:31:20.150Z,4.78
2023-03-24T02:34:32.918Z,5.97
2023-03-24T02:37:43.756Z,6.50
2023-03-24T02:40:34.168Z,8.27
2023-03-24T02:43:16.423Z,7.45
2023-03-24T02:45:56.025Z,8.20
2023-03-24T02:48:33.572Z,7.30
2023-03-24T02:51:10.150Z,8.38
2023-03-24T02:53:54.073Z,6.28
2023-03-24T02:56:31.207Z,7.00
2023-03-24T02:59:04.063Z,6.07
2023-03-24T03:01:38.674Z,10.05
2023-03-24T03:04:12.874Z,4.65
2023-03-24T03:06:45.018Z,7.38
2023-03-24T03:09:17.199Z,5.82
2023-03-24T03:11:51.743Z,36.58
2023-03-24T03:14:26.254Z,98.63
2023-03-24T03:17:00.900Z,83.55
2023-03-24T03:19:34.524Z,64.18
2023-03-24T03:22:06.958Z,48.40
2023-03-24T03:24:41.161Z,20.67
2023-03-24T03:27:17.449Z,11.60
2023-03-24T03:32:22.542Z,6.60
2023-03-24T03:34:57.491Z,9.05
2023-03-24T03:37:31.728Z,6.70
2023-03-24T03:40:03.829Z,8.45
2023-03-24T03:42:34.723Z,10.50
2023-03-24T03:45:03.982Z,7.85
2023-03-24T03:47:34.495Z,8.35
2023-03-24T03:50:04.312Z,21.48
2023-03-24T03:52:33.440Z,11.45
2023-03-24T03:55:03.203Z,14.75
2023-03-24T03:57:34.353Z,6.60
2023-03-24T04:00:12.847Z,8.95
2023-03-24T04:02:53.570Z,4.70
2023-03-24T04:05:31.291Z,11.27
2023-03-24T04:08:15.583Z,9.48
2023-03-24T04:11:10.229Z,11.43
2023-03-24T04:13:55.482Z,8.10
2023-03-24T04:16:38.121Z,9.80
2023-03-24T04:19:31.200Z,7.05
2023-03-24T04:22:13.926Z,8.45
2023-03-24T04:24:51.901Z,9.52
2023-03-24T04:27:29.725Z,8.05
2023-03-24T04:30:11.401Z,8.75
2023-03-24T04:32:47.246Z,11.75
2023-03-24T04:35:27.375Z,10.90
2023-03-24T04:37:57.366Z,8.30
2023-03-24T04:40:27.580Z,8.27
2023-03-24T04:42:59.249Z,6.38
2023-03-24T04:45:34.053Z,14.77
2023-03-24T04:48:05.581Z,13.40
2023-03-24T04:50:38.058Z,22.30
2023-03-24T04:53:08.493Z,13.80
2023-03-24T04:56:02.293Z,15.02
2023-03-24T04:58:31.291Z,13.32
2023-03-24T05:01:01.977Z,10.15
2023-03-24T05:03:31.060Z,7.50
2023-03-24T05:06:00.339Z,5.18
2023-03-24T05:08:29.352Z,6.47
2023-03-24T05:10:58.321Z,6.47
2023-03-24T05:13:27.270Z,5.97
2023-03-24T05:15:56.718Z,7.13
2023-03-24T05:18:27.568Z,7.95
2023-03-24T05:20:56.548Z,8.00
2023-03-24T05:23:25.729Z,12.43
2023-03-24T05:25:54.731Z,17.23
2023-03-24T05:28:26.910Z,14.85
2023-03-24T05:30:56.343Z,13.38
2023-03-24T05:33:27.396Z,8.65
2023-03-24T05:35:56.433Z,9.00
2023-03-24T05:38:25.485Z,16.75
2023-03-24T05:40:58.332Z,15.38
2023-03-24T05:43:27.676Z,10.80
2023-03-24T05:45:57.395Z,6.00
2023-03-24T05:48:28.315Z,6.68
2023-03-24T05:50:57.358Z,5.70
2023-03-24T05:53:26.697Z,7.25
2023-03-24T05:55:55.704Z,6.72
2023-03-24T05:58:24.986Z,5.68
2023-03-24T06:00:55.372Z,7.35
2023-03-24T06:03:24.569Z,7.82
2023-03-24T06:05:55.274Z,10.93
2023-03-24T06:08:25.448Z,10.32
2023-03-24T06:10:54.372Z,7.03
2023-03-24T06:13:23.399Z,5.80
2023-03-24T06:15:55.494Z,5.95
2023-03-24T06:18:25.077Z,5.80
2023-03-24T06:21:01.635Z,6.50
2023-03-24T06:23:31.159Z,6.53
2023-03-24T06:26:02.128Z,7.90
2023-03-24T06:28:35.334Z,4.55
2023-03-24T06:31:06.944Z,6.45
2023-03-24T06:33:36.081Z,7.53
2023-03-24T06:36:08.201Z,7.25
2023-03-24T06:38:37.367Z,5.38
2023-03-24T06:41:07.117Z,8.50
2023-03-24T06:43:36.497Z,14.45
2023-03-24T06:46:05.788Z,12.77
2023-03-24T06:48:34.921Z,9.98
2023-03-24T06:51:06.016Z,7.75
2023-03-24T06:53:35.044Z,6.57
2023-03-24T06:56:04.024Z,7.68
2023-03-24T06:58:33.941Z,5.85
2023-03-24T07:01:03.088Z,7.15
2023-03-24T07:03:32.477Z,4.50
2023-03-24T07:06:01.862Z,5.30
2023-03-24T07:08:38.243Z,4.93
2023-03-24T07:11:09.883Z,5.25
2023-03-24T07:13:39.171Z,5.07
2023-03-24T07:16:09.099Z,5.20
2023-03-24T07:18:38.130Z,9.90
2023-03-24T07:21:08.388Z,6.50
2023-03-24T07:23:39.249Z,7.25
2023-03-24T07:26:08.409Z,7.20
2023-03-24T07:28:37.672Z,6.50
2023-03-24T07:31:07.669Z,7.70
2023-03-24T07:33:36.732Z,6.40
2023-03-24T07:36:06.206Z,5.97
2023-03-24T07:38:35.859Z,7.13
2023-03-24T07:41:06.766Z,8.88
2023-03-24T07:43:36.167Z,8.00
2023-03-24T07:46:05.348Z,8.85
2023-03-24T07:48:34.461Z,8.88
2023-03-24T07:51:03.467Z,7.78
2023-03-24T07:53:33.235Z,8.65
2023-03-24T07:56:02.264Z,9.25
2023-03-24T07:58:32.960Z,7.40
2023-03-24T08:01:01.985Z,8.50
2023-03-24T08:03:31.030Z,6.78
2023-03-24T08:06:00.803Z,8.30
2023-03-24T08:08:29.906Z,8.55
2023-03-24T08:10:59.089Z,10.13
2023-03-24T08:13:28.383Z,8.05
2023-03-24T08:15:59.069Z,8.93
2023-03-24T08:18:29.012Z,6.43
2023-03-24T08:20:59.545Z,10.23
2023-03-24T08:23:29.118Z,7.47
2023-03-24T08:25:58.140Z,10.32
2023-03-24T08:28:27.161Z,7.95
2023-03-24T08:30:57.951Z,7.63
2023-03-24T08:33:26.971Z,8.05
2023-03-24T08:35:58.726Z,9.35
2023-03-24T08:38:33.907Z,6.32
2023-03-24T08:41:07.557Z,10.27
2023-03-24T08:43:38.296Z,8.15
2023-03-24T08:46:12.514Z,12.25
2023-03-24T08:48:44.101Z,6.20
2023-03-24T08:51:16.315Z,10.38
2023-03-24T08:53:45.577Z,7.85
2023-03-24T08:56:14.535Z,8.57
2023-03-24T08:58:43.541Z,7.82
2023-03-24T09:01:14.412Z,10.48
2023-03-24T09:03:43.483Z,7.47
2023-03-24T09:06:12.823Z,6.43
2023-03-24T09:08:42.202Z,5.95
2023-03-24T09:11:16.961Z,5.35
2023-03-24T09:13:46.796Z,8.85
2023-03-24T09:16:18.845Z,5.70
2023-03-24T09:18:48.362Z,7.55
2023-03-24T09:21:18.035Z,5.28
2023-03-24T09:23:47.813Z,8.45
2023-03-24T09:26:16.758Z,9.68
2023-03-24T09:28:45.789Z,7.68
2023-03-24T09:31:17.049Z,10.02
2023-03-24T09:33:46.679Z,8.13
2023-03-24T09:36:15.671Z,12.70
2023-03-24T09:38:44.784Z,6.80
2023-03-24T09:41:19.287Z,10.00
2023-03-24T09:43:52.266Z,8.10
2023-03-24T09:46:29.008Z,7.93
2023-03-24T09:48:58.795Z,10.88
2023-03-24T09:51:29.261Z,8.20
2023-03-24T09:54:06.893Z,10.00
2023-03-24T09:56:38.649Z,10.70
2023-03-24T09:59:13.610Z,8.63
2023-03-24T10:01:44.528Z,7.72
2023-03-24T10:04:17.979Z,11.43
2023-03-24T10:06:49.283Z,8.27
2023-03-24T10:09:25.397Z,8.02
2023-03-24T10:12:06.751Z,7.55
2023-03-24T10:14:53.745Z,9.20
2023-03-24T10:20:02.362Z,11.43
2023-03-24T10:22:38.487Z,10.13
2023-03-24T10:25:16.580Z,8.75
2023-03-24T10:27:50.052Z,10.40
2023-03-24T10:30:21.910Z,11.85
2023-03-24T10:32:52.633Z,12.60
2023-03-24T10:35:26.300Z,8.93
2023-03-24T10:37:59.129Z,6.85
2023-03-24T10:40:33.245Z,6.63
2023-03-24T10:43:06.253Z,8.23
2023-03-24T10:45:37.827Z,10.27
2023-03-24T10:48:10.220Z,9.27
2023-03-24T10:50:43.885Z,10.35
2023-03-24T10:53:19.947Z,10.90
2023-03-24T10:55:49.769Z,7.90
2023-03-24T10:58:27.964Z,6.63
2023-03-24T11:00:58.390Z,8.60
2023-03-24T11:03:31.674Z,6.88
2023-03-24T11:06:02.365Z,7.03
2023-03-24T11:08:36.949Z,7.88
2023-03-24T11:11:17.102Z,8.07
2023-03-24T11:13:57.697Z,8.07
2023-03-24T11:16:32.456Z,9.55
2023-03-24T11:19:05.364Z,5.85
2023-03-24T11:21:38.073Z,5.70
2023-03-24T11:24:13.594Z,9.88
2023-03-24T11:26:46.677Z,7.87
2023-03-24T11:29:19.834Z,7.20
2023-03-24T11:31:55.513Z,9.40
2023-03-24T11:34:35.157Z,7.18
2023-03-24T11:37:09.179Z,9.73
2023-03-24T11:39:38.432Z,7.97
2023-03-24T11:42:18.169Z,6.68
2023-03-24T11:44:52.525Z,8.70
2023-03-24T11:47:30.453Z,10.70
2023-03-24T11:50:18.730Z,5.60
2023-03-24T11:52:51.924Z,10.25
2023-03-24T11:55:29.713Z,8.65
2023-03-24T11:58:03.444Z,7.13
2023-03-24T12:00:36.384Z,8.65
2023-03-24T12:03:40.675Z,9.80
2023-03-24T12:06:29.038Z,10.98
2023-03-24T12:09:09.141Z,8.73
2023-03-24T12:11:52.789Z,6.47
2023-03-24T12:14:34.251Z,6.90
2023-03-24T12:17:10.175Z,7.93
2023-03-24T12:19:55.551Z,5.88
2023-03-24T12:22:41.761Z,9.23
2023-03-24T12:25:30.068Z,8.77
2023-03-24T12:28:14.345Z,7.40
2023-03-24T12:30:51.101Z,11.10
2023-03-24T12:33:32.679Z,5.75
2023-03-24T12:36:32.747Z,6.47
2023-03-24T12:39:10.534Z,7.55
2023-03-24T12:41:58.734Z,6.60
2023-03-24T12:44:46.865Z,7.53
2023-03-24T12:47:31.621Z,8.65
2023-03-24T12:50:13.390Z,8.73
2023-03-24T12:55:42.037Z,7.15
2023-03-24T12:58:19.289Z,8.38
2023-03-24T13:00:58.904Z,7.18
2023-03-24T13:03:33.991Z,6.45
2023-03-24T13:06:17.547Z,5.07
2023-03-24T13:08:59.954Z,9.90
2023-03-24T13:11:37.724Z,6.68
2023-03-24T13:14:13.308Z,6.53
2023-03-24T13:16:44.696Z,9.17
2023-03-24T13:19:22.009Z,7.00
2023-03-24T13:21:54.956Z,10.10
2023-03-24T13:24:27.022Z,8.95
2023-03-24T13:27:06.889Z,8.68
2023-03-24T13:30:03.191Z,7.63
2023-03-24T13:32:36.359Z,8.38
2023-03-24T13:35:13.644Z,6.63
2023-03-24T13:37:46.784Z,9.65
2023-03-24T13:40:23.424Z,8.93
2023-03-24T13:42:58.120Z,10.93
2023-03-24T13:45:36.823Z,6.40
2023-03-24T13:48:19.312Z,5.65
2023-03-24T13:50:56.753Z,8.60
2023-03-24T13:53:39.745Z,10.88
2023-03-24T13:56:11.096Z,7.13
2023-03-24T13:59:10.208Z,7.47
2023-03-24T14:01:40.527Z,8.75
2023-03-24T14:04:29.087Z,11.35
2023-03-24T14:06:59.908Z,9.75
2023-03-24T14:09:30.493Z,11.05
2023-03-24T14:12:20.680Z,9.10
2023-03-24T14:15:16.240Z,9.00
2023-03-24T14:17:47.016Z,8.80
2023-03-24T14:20:29.177Z,7.80
2023-03-24T14:22:58.326Z,12.40
2023-03-24T14:25:30.369Z,7.95
2023-03-24T14:28:19.145Z,8.32
2023-03-24T14:31:04.221Z,8.35
2023-03-24T14:33:33.326Z,8.75
2023-03-24T14:36:12.935Z,12.45
2023-03-24T14:38:44.150Z,7.63
2023-03-24T14:41:17.268Z,8.10
2023-03-24T14:43:57.963Z,10.63
2023-03-24T14:46:48.440Z,11.15
2023-03-24T14:49:31.326Z,7.25
2023-03-24T14:52:04.611Z,8.13
2023-03-24T14:54:39.904Z,7.38
2023-03-24T14:57:10.364Z,8.00
2023-03-24T14:59:47.590Z,10.48
2023-03-24T15:02:28.253Z,7.78
2023-03-24T15:05:22.503Z,9.75
2023-03-24T15:08:13.955Z,7.75
2023-03-24T15:10:47.776Z,7.95
2023-03-24T15:13:38.531Z,8.82
2023-03-24T15:16:18.501Z,10.02
2023-03-24T15:19:00.724Z,9.75
2023-03-24T15:21:33.888Z,10.50
2023-03-24T15:24:03.806Z,10.88
2023-03-24T15:26:33.766Z,14.15
2023-03-24T15:29:05.584Z,11.07
2023-03-24T15:31:34.961Z,10.77
2023-03-24T15:34:26.467Z,15.05
2023-03-24T15:36:57.334Z,10.13
2023-03-24T15:39:28.825Z,12.48
2023-03-24T15:41:57.836Z,8.88
2023-03-24T15:44:29.332Z,12.98
2023-03-24T15:47:00.532Z,9.63
2023-03-24T15:49:34.242Z,11.00
2023-03-24T15:52:05.249Z,11.30
2023-03-24T15:54:44.107Z,11.32
2023-03-24T15:57:18.005Z,8.68
2023-03-24T15:59:49.490Z,10.10
2023-03-24T16:02:34.929Z,9.13
2023-03-24T16:05:12.923Z,11.30
2023-03-24T16:07:43.421Z,14.48
2023-03-24T16:10:33.250Z,6.50
2023-03-24T16:13:15.388Z,8.90
2023-03-24T16:15:46.280Z,10.45
2023-03-24T16:18:18.804Z,9.82
2023-03-24T16:20:49.794Z,7.75
2023-03-24T16:23:20.041Z,6.72
2023-03-24T16:25:49.086Z,10.23
2023-03-24T16:28:21.151Z,12.63
2023-03-24T16:30:58.023Z,11.15
2023-03-24T16:33:28.387Z,8.40
2023-03-24T16:35:59.170Z,12.98
2023-03-24T16:38:28.450Z,13.82
2023-03-24T16:41:00.958Z,9.43
2023-03-24T16:43:34.005Z,9.25
2023-03-24T16:46:05.539Z,10.13
2023-03-24T16:48:34.808Z,11.23
2023-03-24T16:51:05.691Z,10.82
2023-03-24T16:53:34.696Z,11.05
2023-03-24T16:56:03.847Z,10.80
2023-03-24T16:58:32.933Z,11.45
2023-03-24T17:01:02.516Z,11.50
2023-03-24T17:03:31.671Z,8.35
2023-03-24T17:06:00.778Z,9.35
2023-03-24T17:08:31.581Z,12.20
2023-03-24T17:11:00.602Z,9.02
2023-03-24T17:13:29.675Z,8.68
2023-03-24T17:15:58.745Z,7.57
2023-03-24T17:18:27.871Z,12.20
2023-03-24T17:20:57.060Z,10.32
2023-03-24T17:23:27.444Z,7.47
2023-03-24T17:25:58.109Z,13.88
2023-03-24T17:28:27.104Z,8.52
2023-03-24T17:30:56.141Z,8.77
2023-03-24T17:33:25.138Z,7.80
2023-03-24T17:35:54.992Z,8.43
2023-03-24T17:38:24.075Z,9.35
2023-03-24T17:41:02.569Z,11.90
2023-03-24T17:43:31.645Z,9.25
2023-03-24T17:46:01.296Z,8.75
2023-03-24T17:48:30.601Z,7.88
2023-03-24T17:50:59.640Z,6.32
2023-03-24T17:53:28.786Z,9.38
2023-03-24T17:55:59.530Z,8.30
2023-03-24T17:58:31.584Z,9.57
2023-03-24T18:01:07.876Z,11.52
2023-03-24T18:03:38.909Z,7.68
2023-03-24T18:06:09.899Z,9.38
2023-03-24T18:08:39.832Z,9.93
2023-03-24T18:11:10.375Z,7.38
2023-03-24T18:13:41.234Z,10.18
2023-03-24T18:16:20.504Z,8.07
2023-03-24T18:18:50.668Z,12.77
2023-03-24T18:21:20.732Z,10.38
2023-03-24T18:23:50.156Z,7.57
2023-03-24T18:26:20.064Z,7.18
2023-03-24T18:28:50.743Z,7.88
2023-03-24T18:31:21.392Z,9.18
2023-03-24T18:33:51.302Z,7.90
2023-03-24T18:36:27.603Z,11.25
2023-03-24T18:39:00.847Z,6.82
2023-03-24T18:41:31.222Z,8.93
2023-03-24T18:44:02.101Z,7.13
2023-03-24T18:46:31.366Z,8.10
2023-03-24T18:49:00.568Z,8.40
2023-03-24T18:51:29.962Z,6.97
2023-03-24T18:53:59.081Z,9.25
2023-03-24T18:56:28.181Z,9.40
2023-03-24T18:58:57.225Z,7.68
2023-03-24T19:01:27.943Z,9.85
2023-03-24T19:03:57.200Z,9.05
2023-03-24T19:06:31.816Z,11.93
2023-03-24T19:09:00.992Z,8.00
2023-03-24T19:11:29.942Z,8.27
2023-03-24T19:14:00.130Z,5.43
2023-03-24T19:16:30.890Z,9.70
2023-03-24T19:19:01.032Z,8.20
2023-03-24T19:21:30.110Z,7.57
2023-03-24T19:23:59.285Z,7.80
2023-03-24T19:26:28.269Z,8.60
2023-03-24T19:28:58.265Z,7.72
2023-03-24T19:31:27.284Z,7.40
2023-03-24T19:33:57.974Z,5.80
2023-03-24T19:36:27.044Z,5.85
2023-03-24T19:38:56.603Z,7.68
2023-03-24T19:41:27.188Z,7.03
2023-03-24T19:43:56.283Z,8.57
2023-03-24T19:46:25.494Z,9.18
2023-03-24T19:48:54.550Z,4.70
2023-03-24T19:51:25.583Z,6.68
2023-03-24T19:53:54.622Z,5.90
2023-03-24T19:56:23.714Z,6.93
2023-03-24T19:58:54.964Z,7.90
2023-03-24T20:01:24.627Z,8.75
2023-03-24T20:03:54.475Z,8.73
2023-03-24T20:06:25.328Z,6.85
2023-03-24T20:08:54.309Z,7.88
2023-03-24T20:11:23.299Z,8.52
2023-03-24T20:13:52.341Z,10.60
2023-03-24T20:16:21.624Z,5.85
2023-03-24T20:18:50.699Z,8.38
2023-03-24T20:21:23.475Z,8.70
2023-03-24T20:23:54.284Z,8.48
2023-03-24T20:26:23.469Z,7.20
2023-03-24T20:28:52.581Z,7.75
2023-03-24T20:31:21.780Z,7.47
2023-03-24T20:33:51.098Z,6.90
2023-03-24T20:36:20.198Z,7.32
2023-03-24T20:38:49.311Z,6.35
2023-03-24T20:41:20.669Z,6.03
2023-03-24T20:43:49.726Z,4.80
2023-03-24T20:46:19.621Z,4.93
2023-03-24T20:48:48.690Z,8.32
2023-03-24T20:51:20.983Z,6.53
2023-03-24T20:53:50.176Z,4.90
2023-03-24T20:56:20.939Z,5.78
2023-03-24T20:58:51.050Z,5.65
2023-03-24T21:01:22.904Z,4.45
2023-03-24T21:03:53.529Z,5.15
2023-03-24T21:06:22.968Z,4.47
2023-03-24T21:08:53.394Z,4.38
2023-03-24T21:11:24.064Z,4.60
2023-03-24T21:13:53.097Z,5.15
2023-03-24T21:16:22.158Z,3.78
2023-03-24T21:18:51.176Z,3.47
2023-03-24T21:21:20.173Z,4.63
2023-03-24T21:23:49.195Z,5.75
2023-03-24T21:26:18.905Z,3.80
2023-03-24T21:28:49.634Z,4.13
2023-03-24T21:31:21.836Z,6.45
2023-03-24T21:33:52.155Z,5.13
2023-03-24T21:36:22.425Z,5.30
2023-03-24T21:38:54.744Z,4.85
2023-03-24T21:41:23.937Z,4.18
2023-03-24T21:43:55.105Z,4.32
2023-03-24T21:46:28.111Z,5.18
2023-03-24T21:49:00.851Z,3.80
2023-03-24T21:51:34.935Z,4.28
2023-03-24T21:54:05.593Z,6.60
2023-03-24T21:56:35.548Z,5.38
2023-03-24T21:59:06.290Z,7.47
2023-03-24T22:01:36.796Z,7.07
2023-03-24T22:04:06.835Z,3.85
2023-03-24T22:06:39.359Z,4.65
2023-03-24T22:09:11.177Z,3.42
2023-03-24T22:11:43.493Z,5.38
2023-03-24T22:14:14.249Z,4.25
2023-03-24T22:16:43.462Z,3.95
2023-03-24T22:19:12.487Z,4.22
2023-03-24T22:21:41.515Z,6.40
2023-03-24T22:24:10.896Z,9.27
2023-03-24T22:26:39.912Z,4.05
2023-03-24T22:29:09.034Z,3.90
2023-03-24T22:31:43.471Z,8.07
2023-03-24T22:34:14.693Z,4.80
2023-03-24T22:36:43.866Z,4.18
2023-03-24T22:39:12.949Z,6.18
2023-03-24T22:41:44.601Z,7.22
2023-03-24T22:44:13.636Z,3.65
2023-03-24T22:46:44.424Z,5.53
2023-03-24T22:49:13.467Z,3.85
2023-03-24T22:51:42.906Z,3.40
2023-03-24T22:54:12.035Z,5.88
2023-03-24T22:56:41.062Z,4.10
2023-03-24T22:59:10.180Z,4.78
2023-03-24T23:01:39.238Z,5.05
2023-03-24T23:04:10.045Z,4.65
2023-03-24T23:06:39.273Z,6.60
2023-03-24T23:09:08.539Z,7.05
2023-03-24T23:11:37.607Z,4.70
2023-03-24T23:14:07.027Z,4.75
2023-03-24T23:16:40.773Z,4.20
2023-03-24T23:19:13.088Z,5.72
2023-03-24T23:21:43.099Z,4.57
2023-03-24T23:24:12.482Z,6.07
2023-03-24T23:26:41.529Z,5.50
2023-03-24T23:29:10.681Z,4.72
2023-03-24T23:31:41.436Z,5.55
2023-03-24T23:34:13.409Z,5.30
2023-03-24T23:36:45.820Z,5.55
2023-03-24T23:39:14.793Z,5.57
2023-03-24T23:41:43.801Z,4.88
2023-03-24T23:44:12.798Z,5.35
2023-03-24T23:46:44.254Z,7.43
2023-03-24T23:49:14.899Z,5.43
2023-03-24T23:51:43.937Z,7.93
2023-03-24T23:54:12.950Z,4.82
2023-03-24T23:56:42.345Z,5.63
2023-03-24T23:59:12.748Z,6.00
